Météo Nord-Pas-de-Calais   La météo au plus près de chez vous

Station météorologique

Observations météo à Chartres (28070)

28070001 155 m Dernier relevé à 07:06
17.6°C
Humidité 92 % Vent 6.8 km/h 1019.1 hPa

Journée consultée

Vendredi 4 Septembre 2026

Synthèse de la journée

Périodes de référence en UTC

Température maximale

28.5°C

à 18:00

06h 06h

Température minimale

17.2°C

à 05:30

18h 18h

Rafale maximale

14 km/h

à 06:36

00h 00h

Précipitations

0 mm

Cumul quotidien

06h 06h

Ensoleillement

0h 0 mins

Durée quotidienne

00h 00h

Graphiques de la journée

Heure locale Réduire

Données détaillées

Relevés météo

Pas de 6 minutes Afficher les relevés infra-horaires
Relevés météo détaillés à Chartres pour le Vendredi 4 Septembre 2026
Heure Température °C Point de rosée °C Humidité % Vent moyen (raf.), km/h Précipitations mm Température à 10 cm °C Température à 20 cm °C Température à 50 cm °C Température à 100 cm °C Visibilité m État du sol   Hauteur neige cm Ensoleillement min Rayonnement global W/m² Pression hPa
07:06 17.6 °C 16.5 °C 93 % 8 km/h (14 km/h) 0 mm0 mm 21.3 °C 21.2 °C 20.5 °C 19.9 °C 20000 m 1   0 cm 0 min 0 W/m² 1019 hPa
07:00 17.6 °C 16.5 °C 93 % 8 km/h (14 km/h) 0 mm0 mm 21.3 °C 21.3 °C 20.5 °C 19.9 °C 20000 m 1   0 cm 0 min 0 W/m² 1019.1 hPa
06:54 17.7 °C 16.4 °C 92 % 8 km/h (13 km/h) 0 mm0 mm 21.2 °C 21.3 °C 20.5 °C 19.9 °C 20000 m 1   0 cm 0 min 0 W/m² 1019.1 hPa
06:48 17.8 °C 16.5 °C 92 % 7 km/h (11 km/h) 0 mm0 mm 21.3 °C 21.3 °C 20.5 °C 19.9 °C 20000 m 1   0 cm 0 min 0 W/m² 1019.1 hPa
06:42 17.9 °C 16.6 °C 92 % 8 km/h (14 km/h) 0 mm0 mm 21.3 °C 21.3 °C 20.5 °C 19.9 °C 20000 m 1   0 cm 0 min 0 W/m² 1019.1 hPa
06:36 17.9 °C 16.6 °C 92 % 8 km/h (14 km/h) 0 mm0 mm 21.3 °C 21.3 °C 20.5 °C 19.9 °C 20000 m 1   0 cm 0 min 0 W/m² 1019 hPa
06:30 17.9 °C 16.6 °C 92 % 8 km/h (12 km/h) 0 mm0 mm 21.3 °C 21.3 °C 20.5 °C 19.9 °C 20000 m 1   0 cm 0 min 0 W/m² 1019.1 hPa
06:24 17.8 °C 16.5 °C 92 % 7 km/h (12 km/h) 0 mm0 mm 21.3 °C 21.3 °C 20.5 °C 19.9 °C 20000 m 0 cm 0 min 0 W/m² 1019.1 hPa
06:18 17.8 °C 16.5 °C 92 % 8 km/h (12 km/h) 0 mm0 mm 21.3 °C 21.3 °C 20.5 °C 19.9 °C 20000 m 0 cm 0 min 0 W/m² 1019.1 hPa
06:12 17.8 °C 16.5 °C 92 % 7 km/h (11 km/h) 0 mm0 mm 21.4 °C 21.3 °C 20.4 °C 19.9 °C 20000 m 0 cm 0 min 0 W/m² 1019.1 hPa
06:06 17.7 °C 16.4 °C 92 % 7 km/h (10 km/h) 0 mm0 mm 21.4 °C 21.3 °C 20.5 °C 19.9 °C 20000 m 0 cm 0 min 0 W/m² 1019.1 hPa
06:00 17.7 °C 16.4 °C 92 % 6 km/h (9 km/h) 0 mm0 mm 21.4 °C 21.3 °C 20.5 °C 19.9 °C 20000 m 0 cm 0 min 0 W/m² 1019.1 hPa
05:54 17.6 °C 16.5 °C 93 % 5 km/h (9 km/h) 0 mm0 mm 21.4 °C 21.3 °C 20.5 °C 19.9 °C 20000 m 0 cm 0 min 0 W/m² 1019.1 hPa
05:48 17.5 °C 16.4 °C 93 % 6 km/h (10 km/h) 0 mm0 mm 21.4 °C 21.3 °C 20.5 °C 19.9 °C 20000 m 0 cm 0 min 0 W/m² 1019.1 hPa
05:42 17.3 °C 16.2 °C 93 % 5 km/h (10 km/h) 0 mm0 mm 21.4 °C 21.3 °C 20.5 °C 19.9 °C 20000 m 0 cm 0 min 0 W/m² 1019.1 hPa
05:36 17.2 °C 15.7 °C 91 % 5 km/h (10 km/h) 0 mm0 mm 21.4 °C 21.3 °C 20.5 °C 19.9 °C 20000 m 0   0 cm 0 min 0 W/m² 1019.1 hPa
05:30 17.2 °C 15.7 °C 91 % 5 km/h (10 km/h) 0 mm0 mm 21.5 °C 21.3 °C 20.5 °C 19.9 °C 20000 m 0   0 cm 0 min 0 W/m² 1019.1 hPa
05:24 17.3 °C 15.8 °C 91 % 5 km/h (9 km/h) 0 mm0 mm 21.4 °C 21.4 °C 20.5 °C 19.9 °C 20000 m 0   0 cm 0 min 0 W/m² 1019 hPa
05:18 17.4 °C 15.9 °C 91 % 6 km/h (9 km/h) 0 mm0 mm 21.4 °C 21.4 °C 20.5 °C 19.9 °C 20000 m 0   0 cm 0 min 0 W/m² 1018.9 hPa
05:12 17.4 °C 15.9 °C 91 % 6 km/h (8 km/h) 0 mm0 mm 21.5 °C 21.4 °C 20.5 °C 19.9 °C 20000 m 0   0 cm 0 min 0 W/m² 1018.9 hPa
05:06 17.4 °C 15.7 °C 90 % 6 km/h (8 km/h) 0 mm0 mm 21.5 °C 21.4 °C 20.5 °C 19.9 °C 20000 m 0   0 cm 0 min 0 W/m² 1019 hPa
05:00 17.5 °C 15.7 °C 89 % 6 km/h (8 km/h) 0 mm0 mm 21.5 °C 21.4 °C 20.5 °C 19.9 °C 20000 m 0   0 cm 0 min 0 W/m² 1019.1 hPa
04:54 17.7 °C 15.9 °C 89 % 5 km/h (8 km/h) 0 mm0 mm 21.5 °C 21.4 °C 20.5 °C 19.9 °C 20000 m 0   0 cm 0 min 0 W/m² 1019.1 hPa
04:48 17.8 °C 16.1 °C 90 % 5 km/h (7 km/h) 0 mm0 mm 21.5 °C 21.4 °C 20.5 °C 19.9 °C 20000 m 0   0 cm 0 min 0 W/m² 1019.1 hPa
04:42 17.9 °C 16.1 °C 89 % 4 km/h (6 km/h) 0 mm0 mm 21.5 °C 21.4 °C 20.4 °C 19.9 °C 20000 m 0   0 cm 0 min 0 W/m² 1019.1 hPa
04:36 18 °C 16.2 °C 89 % 5 km/h (8 km/h) 0 mm0 mm 21.5 °C 21.4 °C 20.5 °C 19.9 °C 20000 m 0   0 cm 0 min 0 W/m² 1019.1 hPa
04:30 18 °C 16 °C 88 % 5 km/h (8 km/h) 0 mm0 mm 21.5 °C 21.4 °C 20.4 °C 19.9 °C 20000 m 0   0 cm 0 min 0 W/m² 1019.1 hPa
04:24 18.1 °C 16.1 °C 88 % 6 km/h (8 km/h) 0 mm0 mm 21.6 °C 21.4 °C 20.5 °C 19.9 °C 19500 m 0   0 cm 0 min 0 W/m² 1019.1 hPa
04:18 18.1 °C 16.1 °C 88 % 5 km/h (11 km/h) 0 mm0 mm 21.6 °C 21.4 °C 20.4 °C 19.9 °C 19500 m 0   0 cm 0 min 0 W/m² 1019.2 hPa
04:12 18.1 °C 16.1 °C 88 % 5 km/h (9 km/h) 0 mm0 mm 21.6 °C 21.4 °C 20.5 °C 19.9 °C 20000 m 0   0 cm 0 min 0 W/m² 1019.3 hPa
04:06 18.2 °C 16.2 °C 88 % 5 km/h (9 km/h) 0 mm0 mm 21.6 °C 21.4 °C 20.5 °C 19.9 °C 20000 m 0   0 cm 0 min 0 W/m² 1019.3 hPa
04:00 18.3 °C 16.3 °C 88 % 6 km/h (9 km/h) 0 mm0 mm 21.6 °C 21.4 °C 20.5 °C 19.9 °C 20000 m 0   0 cm 0 min 0 W/m² 1019.3 hPa
03:54 18.2 °C 16 °C 87 % 6 km/h (9 km/h) 0 mm0 mm 21.6 °C 21.4 °C 20.5 °C 19.9 °C 20000 m 0   0 cm 0 min 0 W/m² 1019.4 hPa
03:48 18.1 °C 15.9 °C 87 % 6 km/h (9 km/h) 0 mm0 mm 21.6 °C 21.4 °C 20.5 °C 19.9 °C 20000 m 0   0 cm 0 min 0 W/m² 1019.5 hPa
03:42 18.1 °C 15.5 °C 85 % 5 km/h (7 km/h) 0 mm0 mm 21.6 °C 21.4 °C 20.4 °C 19.9 °C 20000 m 0   0 cm 0 min 0 W/m² 1019.7 hPa
03:36 18.2 °C 15.6 °C 85 % 4 km/h (7 km/h) 0 mm0 mm 21.7 °C 21.4 °C 20.4 °C 19.9 °C 20000 m 0   0 cm 0 min 0 W/m² 1019.7 hPa
03:30 18.4 °C 15.5 °C 83 % 3 km/h (4 km/h) 0 mm0 mm 21.7 °C 21.4 °C 20.4 °C 19.9 °C 20000 m 0   0 cm 0 min 0 W/m² 1019.8 hPa
03:24 18.6 °C 15.5 °C 82 % 3 km/h (4 km/h) 0 mm0 mm 21.7 °C 21.4 °C 20.5 °C 19.9 °C 20000 m 0   0 cm 0 min 0 W/m² 1019.9 hPa
03:18 18.9 °C 15.8 °C 82 % 3 km/h (4 km/h) 0 mm0 mm 21.7 °C 21.4 °C 20.4 °C 19.9 °C 20000 m 0   0 cm 0 min 0 W/m² 1020 hPa
03:12 19.2 °C 16.1 °C 82 % 3 km/h (5 km/h) 0 mm0 mm 21.7 °C 21.4 °C 20.4 °C 19.9 °C 20000 m 0   0 cm 0 min 0 W/m² 1019.9 hPa
03:06 19.4 °C 16.4 °C 83 % 3 km/h (4 km/h) 0 mm0 mm 21.7 °C 21.5 °C 20.5 °C 19.9 °C 20000 m 0   0 cm 0 min 0 W/m² 1019.9 hPa
03:00 19.4 °C 16.2 °C 82 % 3 km/h (7 km/h) 0 mm0 mm 21.7 °C 21.5 °C 20.4 °C 19.9 °C 20000 m 0   0 cm 0 min 0 W/m² 1020 hPa
02:54 19.6 °C 16.4 °C 82 % 4 km/h (7 km/h) 0 mm0 mm 21.7 °C 21.5 °C 20.4 °C 19.9 °C 20000 m 0   0 cm 0 min 0 W/m² 1020 hPa
02:48 19.7 °C 16.3 °C 81 % 5 km/h (8 km/h) 0 mm0 mm 21.8 °C 21.5 °C 20.4 °C 19.9 °C 20000 m 0   0 cm 0 min 0 W/m² 1020.1 hPa
02:42 19.8 °C 16.4 °C 81 % 5 km/h (9 km/h) 0 mm0 mm 21.7 °C 21.5 °C 20.4 °C 19.9 °C 20000 m 0   0 cm 0 min 0 W/m² 1020.1 hPa
02:36 19.9 °C 16.5 °C 81 % 5 km/h (9 km/h) 0 mm0 mm 21.8 °C 21.5 °C 20.4 °C 19.9 °C 20000 m 0   0 cm 0 min 0 W/m² 1020.2 hPa
02:30 19.9 °C 16.5 °C 81 % 5 km/h (12 km/h) 0 mm0 mm 21.8 °C 21.5 °C 20.4 °C 19.9 °C 20000 m 0   0 cm 0 min 0 W/m² 1020.4 hPa
02:24 20 °C 16.6 °C 81 % 6 km/h (12 km/h) 0 mm0 mm 21.8 °C 21.5 °C 20.4 °C 19.9 °C 20000 m 0   0 cm 0 min 0 W/m² 1020.5 hPa
02:18 20 °C 16.6 °C 81 % 6 km/h (12 km/h) 0 mm0 mm 21.8 °C 21.5 °C 20.4 °C 19.9 °C 20000 m 0   0 cm 0 min 0 W/m² 1020.6 hPa
02:12 20 °C 16.6 °C 81 % 5 km/h (9 km/h) 0 mm0 mm 21.8 °C 21.5 °C 20.4 °C 19.9 °C 20000 m 0   0 cm 0 min 0 W/m² 1020.6 hPa
02:06 20 °C 16.6 °C 81 % 5 km/h (10 km/h) 0 mm0 mm 21.8 °C 21.5 °C 20.4 °C 19.9 °C 20000 m 0   0 cm 0 min 0 W/m² 1020.6 hPa
02:00 20.1 °C 16.7 °C 81 % 6 km/h (9 km/h) 0 mm0 mm 21.8 °C 21.5 °C 20.4 °C 19.9 °C 20000 m 0 cm 0 min 0 W/m² 1020.6 hPa
01:54 20.1 °C 16.5 °C 80 % 6 km/h (9 km/h) 0 mm0 mm 21.8 °C 21.5 °C 20.4 °C 19.9 °C 20000 m 0 cm 0 min 0 W/m² 1020.6 hPa
01:48 20.2 °C 16.6 °C 80 % 6 km/h (9 km/h) 0 mm0 mm 21.9 °C 21.5 °C 20.4 °C 19.9 °C 20000 m 0 cm 0 min 0 W/m² 1020.6 hPa
01:42 20.3 °C 16.5 °C 79 % 5 km/h (8 km/h) 0 mm0 mm 21.9 °C 21.5 °C 20.4 °C 19.9 °C 20000 m 0   0 cm 0 min 0 W/m² 1020.6 hPa
01:36 20.4 °C 16.6 °C 79 % 6 km/h (9 km/h) 0 mm0 mm 21.9 °C 21.5 °C 20.4 °C 19.9 °C 20000 m 0 cm 0 min 0 W/m² 1020.6 hPa
01:30 20.6 °C 16.6 °C 78 % 6 km/h (10 km/h) 0 mm0 mm 21.9 °C 21.5 °C 20.4 °C 19.9 °C 20000 m 0 cm 0 min 0 W/m² 1020.6 hPa
01:24 20.7 °C 16.7 °C 78 % 7 km/h (9 km/h) 0 mm0 mm 21.9 °C 21.5 °C 20.4 °C 19.9 °C 20000 m 0   0 cm 0 min 0 W/m² 1020.6 hPa
01:18 20.8 °C 16.6 °C 77 % 6 km/h (9 km/h) 0 mm0 mm 21.9 °C 21.5 °C 20.4 °C 19.9 °C 20000 m 0 cm 0 min 0 W/m² 1020.7 hPa
01:12 21 °C 16.6 °C 76 % 5 km/h (9 km/h) 0 mm0 mm 21.9 °C 21.5 °C 20.4 °C 19.9 °C 20000 m 0 cm 0 min 0 W/m² 1020.5 hPa
01:06 21.1 °C 16.7 °C 76 % 4 km/h (7 km/h) 0 mm0 mm 21.9 °C 21.5 °C 20.4 °C 19.9 °C 20000 m 0   0 cm 0 min 0 W/m² 1020.6 hPa
01:00 21.3 °C 16.7 °C 75 % 4 km/h (8 km/h) 0 mm0 mm 21.9 °C 21.5 °C 20.4 °C 19.9 °C 20000 m 0   0 cm 0 min 0 W/m² 1020.6 hPa
00:54 21.4 °C 16.8 °C 75 % 5 km/h (10 km/h) 0 mm0 mm 22 °C 21.5 °C 20.4 °C 19.9 °C 20000 m 0   0 cm 0 min 0 W/m² 1020.7 hPa
00:48 21.5 °C 16.7 °C 74 % 6 km/h (10 km/h) 0 mm0 mm 22 °C 21.5 °C 20.4 °C 19.9 °C 20000 m 0   0 cm 0 min 0 W/m² 1020.7 hPa
00:42 21.7 °C 16.6 °C 73 % 6 km/h (9 km/h) 0 mm0 mm 22 °C 21.5 °C 20.4 °C 19.9 °C 20000 m 0   0 cm 0 min 0 W/m² 1020.7 hPa
00:36 21.8 °C 16.7 °C 73 % 6 km/h (10 km/h) 0 mm0 mm 22 °C 21.5 °C 20.4 °C 19.9 °C 20000 m 0   0 cm 0 min 0 W/m² 1020.7 hPa
00:30 21.8 °C 16.7 °C 73 % 7 km/h (11 km/h) 0 mm0 mm 22 °C 21.5 °C 20.4 °C 19.9 °C 20000 m 0   0 cm 0 min 0 W/m² 1020.8 hPa
00:24 21.9 °C 16.6 °C 72 % 8 km/h (12 km/h) 0 mm0 mm 22 °C 21.5 °C 20.4 °C 19.9 °C 20000 m 0   0 cm 0 min 0 W/m² 1020.8 hPa
00:18 22.1 °C 16.8 °C 72 % 8 km/h (14 km/h) 0 mm0 mm 22 °C 21.5 °C 20.4 °C 19.9 °C 20000 m 0   0 cm 0 min 0 W/m² 1020.9 hPa
00:12 22.1 °C 16.8 °C 72 % 7 km/h (14 km/h) 0 mm0 mm 22 °C 21.5 °C 20.4 °C 19.9 °C 20000 m 0   0 cm 0 min 0 W/m² 1020.9 hPa
00:06 22.1 °C 16.8 °C 72 % 7 km/h (12 km/h) 0 mm0 mm 22 °C 21.5 °C 20.4 °C 19.9 °C 20000 m 0   0 cm 0 min 0 W/m² 1020.9 hPa
00:00 22.2 °C 16.7 °C 71 % 8 km/h (13 km/h) 0 mm0 mm 22 °C 21.5 °C 20.4 °C 19.9 °C 20000 m 0   0 cm 0 min 0 W/m² 1021 hPa

Données via Météo-France

Relevés météo à Chartres

Cette page rassemble les observations de la station de Chartres : température, humidité, vent, précipitations et pression atmosphérique. Les graphiques facilitent le suivi de la journée, tandis que le tableau donne accès aux mesures horaires et infra-horaires disponibles.

Pour replacer ces mesures dans leur contexte, consultez la climatologie de Chartres ainsi que ses normales et records. Retrouvez aussi la carte des observations météo en temps réel.